sensor_id;sensor_type;location;lat;lon;timestamp;P1;durP1;ratioP1;P2;durP2;ratioP2
6388;SDS011;3227;42.654;23.360;2023-11-21T00:00:26;8.30;;;3.67;;
6388;SDS011;3227;42.654;23.360;2023-11-21T00:02:53;8.70;;;3.50;;
6388;SDS011;3227;42.654;23.360;2023-11-21T00:05:21;7.37;;;3.93;;
6388;SDS011;3227;42.654;23.360;2023-11-21T00:07:48;8.50;;;3.80;;
6388;SDS011;3227;42.654;23.360;2023-11-21T00:10:16;7.83;;;4.17;;
6388;SDS011;3227;42.654;23.360;2023-11-21T00:12:43;8.53;;;4.60;;
6388;SDS011;3227;42.654;23.360;2023-11-21T00:15:10;9.33;;;4.60;;
6388;SDS011;3227;42.654;23.360;2023-11-21T00:17:40;8.67;;;4.67;;
6388;SDS011;3227;42.654;23.360;2023-11-21T00:20:08;11.07;;;5.77;;
6388;SDS011;3227;42.654;23.360;2023-11-21T00:22:39;10.00;;;5.50;;
6388;SDS011;3227;42.654;23.360;2023-11-21T00:25:06;12.63;;;5.97;;
6388;SDS011;3227;42.654;23.360;2023-11-21T00:27:34;12.50;;;6.43;;
6388;SDS011;3227;42.654;23.360;2023-11-21T00:30:01;11.40;;;6.20;;
6388;SDS011;3227;42.654;23.360;2023-11-21T00:32:30;11.07;;;6.17;;
6388;SDS011;3227;42.654;23.360;2023-11-21T00:34:57;12.30;;;6.30;;
6388;SDS011;3227;42.654;23.360;2023-11-21T00:37:24;13.63;;;6.70;;
6388;SDS011;3227;42.654;23.360;2023-11-21T00:39:52;13.37;;;7.33;;
6388;SDS011;3227;42.654;23.360;2023-11-21T00:42:19;16.27;;;7.83;;
6388;SDS011;3227;42.654;23.360;2023-11-21T00:44:46;16.73;;;7.43;;
6388;SDS011;3227;42.654;23.360;2023-11-21T00:47:13;12.47;;;6.60;;
6388;SDS011;3227;42.654;23.360;2023-11-21T00:49:40;11.73;;;6.10;;
6388;SDS011;3227;42.654;23.360;2023-11-21T00:52:06;13.00;;;6.00;;
6388;SDS011;3227;42.654;23.360;2023-11-21T00:54:33;12.47;;;6.37;;
6388;SDS011;3227;42.654;23.360;2023-11-21T00:57:02;10.80;;;5.77;;
6388;SDS011;3227;42.654;23.360;2023-11-21T00:59:29;12.13;;;6.00;;
6388;SDS011;3227;42.654;23.360;2023-11-21T01:01:56;12.70;;;6.67;;
6388;SDS011;3227;42.654;23.360;2023-11-21T01:04:25;12.30;;;6.73;;
6388;SDS011;3227;42.654;23.360;2023-11-21T01:06:52;13.13;;;6.87;;
6388;SDS011;3227;42.654;23.360;2023-11-21T01:09:19;12.63;;;6.30;;
6388;SDS011;3227;42.654;23.360;2023-11-21T01:11:45;12.50;;;6.97;;
6388;SDS011;3227;42.654;23.360;2023-11-21T01:14:13;12.27;;;6.10;;
6388;SDS011;3227;42.654;23.360;2023-11-21T01:16:42;15.27;;;6.73;;
6388;SDS011;3227;42.654;23.360;2023-11-21T01:19:09;15.90;;;7.30;;
6388;SDS011;3227;42.654;23.360;2023-11-21T01:21:36;13.97;;;7.10;;
6388;SDS011;3227;42.654;23.360;2023-11-21T01:24:03;16.00;;;6.77;;
6388;SDS011;3227;42.654;23.360;2023-11-21T01:26:32;12.17;;;6.57;;
6388;SDS011;3227;42.654;23.360;2023-11-21T01:28:59;14.87;;;6.93;;
6388;SDS011;3227;42.654;23.360;2023-11-21T01:31:27;14.23;;;6.80;;
6388;SDS011;3227;42.654;23.360;2023-11-21T01:33:55;13.03;;;6.87;;
6388;SDS011;3227;42.654;23.360;2023-11-21T01:36:21;16.23;;;7.23;;
6388;SDS011;3227;42.654;23.360;2023-11-21T01:38:48;16.27;;;7.33;;
6388;SDS011;3227;42.654;23.360;2023-11-21T01:41:15;12.40;;;7.27;;
6388;SDS011;3227;42.654;23.360;2023-11-21T01:43:42;12.17;;;7.00;;
6388;SDS011;3227;42.654;23.360;2023-11-21T01:46:09;15.20;;;7.47;;
6388;SDS011;3227;42.654;23.360;2023-11-21T01:48:37;14.70;;;7.83;;
6388;SDS011;3227;42.654;23.360;2023-11-21T01:51:05;14.50;;;7.93;;
6388;SDS011;3227;42.654;23.360;2023-11-21T01:53:32;14.97;;;8.50;;
6388;SDS011;3227;42.654;23.360;2023-11-21T01:55:59;16.37;;;7.87;;
6388;SDS011;3227;42.654;23.360;2023-11-21T01:58:26;13.37;;;6.77;;
6388;SDS011;3227;42.654;23.360;2023-11-21T02:00:52;14.83;;;7.50;;
6388;SDS011;3227;42.654;23.360;2023-11-21T02:03:20;14.37;;;7.80;;
6388;SDS011;3227;42.654;23.360;2023-11-21T02:05:48;13.10;;;7.10;;
6388;SDS011;3227;42.654;23.360;2023-11-21T02:08:15;17.27;;;9.37;;
6388;SDS011;3227;42.654;23.360;2023-11-21T02:10:41;15.97;;;8.37;;
6388;SDS011;3227;42.654;23.360;2023-11-21T02:13:08;15.60;;;8.67;;
6388;SDS011;3227;42.654;23.360;2023-11-21T02:15:36;15.10;;;8.40;;
6388;SDS011;3227;42.654;23.360;2023-11-21T02:18:03;17.00;;;8.93;;
6388;SDS011;3227;42.654;23.360;2023-11-21T02:20:31;21.80;;;9.80;;
6388;SDS011;3227;42.654;23.360;2023-11-21T02:23:01;23.70;;;9.77;;
6388;SDS011;3227;42.654;23.360;2023-11-21T02:25:28;22.10;;;10.43;;
6388;SDS011;3227;42.654;23.360;2023-11-21T02:27:56;18.40;;;10.63;;
6388;SDS011;3227;42.654;23.360;2023-11-21T02:30:23;19.53;;;10.77;;
6388;SDS011;3227;42.654;23.360;2023-11-21T02:32:52;18.80;;;10.43;;
6388;SDS011;3227;42.654;23.360;2023-11-21T02:35:20;18.80;;;10.50;;
6388;SDS011;3227;42.654;23.360;2023-11-21T02:37:47;21.47;;;10.23;;
6388;SDS011;3227;42.654;23.360;2023-11-21T02:40:15;16.37;;;8.50;;
6388;SDS011;3227;42.654;23.360;2023-11-21T02:42:43;15.37;;;9.27;;
6388;SDS011;3227;42.654;23.360;2023-11-21T02:45:10;17.50;;;10.20;;
6388;SDS011;3227;42.654;23.360;2023-11-21T02:47:37;23.20;;;9.57;;
6388;SDS011;3227;42.654;23.360;2023-11-21T02:50:04;18.00;;;9.60;;
6388;SDS011;3227;42.654;23.360;2023-11-21T02:52:33;17.27;;;8.50;;
6388;SDS011;3227;42.654;23.360;2023-11-21T02:55:00;18.97;;;9.40;;
6388;SDS011;3227;42.654;23.360;2023-11-21T02:57:28;17.80;;;9.40;;
6388;SDS011;3227;42.654;23.360;2023-11-21T02:59:55;14.47;;;8.73;;
6388;SDS011;3227;42.654;23.360;2023-11-21T03:02:22;18.37;;;9.60;;
6388;SDS011;3227;42.654;23.360;2023-11-21T03:04:49;18.17;;;9.20;;
6388;SDS011;3227;42.654;23.360;2023-11-21T03:07:15;21.30;;;10.37;;
6388;SDS011;3227;42.654;23.360;2023-11-21T03:09:44;21.60;;;10.30;;
6388;SDS011;3227;42.654;23.360;2023-11-21T03:12:11;15.57;;;9.17;;
6388;SDS011;3227;42.654;23.360;2023-11-21T03:14:39;19.37;;;9.33;;
6388;SDS011;3227;42.654;23.360;2023-11-21T03:17:06;21.37;;;9.40;;
6388;SDS011;3227;42.654;23.360;2023-11-21T03:19:33;17.43;;;9.20;;
6388;SDS011;3227;42.654;23.360;2023-11-21T03:22:00;21.80;;;8.93;;
6388;SDS011;3227;42.654;23.360;2023-11-21T03:24:27;14.77;;;8.43;;
6388;SDS011;3227;42.654;23.360;2023-11-21T03:26:53;17.30;;;8.17;;
6388;SDS011;3227;42.654;23.360;2023-11-21T03:29:20;16.27;;;8.93;;
6388;SDS011;3227;42.654;23.360;2023-11-21T03:31:48;20.13;;;8.93;;
6388;SDS011;3227;42.654;23.360;2023-11-21T03:34:15;19.13;;;9.27;;
6388;SDS011;3227;42.654;23.360;2023-11-21T03:36:50;17.70;;;8.97;;
6388;SDS011;3227;42.654;23.360;2023-11-21T03:39:17;16.23;;;8.43;;
6388;SDS011;3227;42.654;23.360;2023-11-21T03:41:45;17.63;;;9.33;;
6388;SDS011;3227;42.654;23.360;2023-11-21T03:44:12;16.30;;;8.20;;
6388;SDS011;3227;42.654;23.360;2023-11-21T03:46:39;14.33;;;8.30;;
6388;SDS011;3227;42.654;23.360;2023-11-21T03:49:07;18.67;;;8.90;;
6388;SDS011;3227;42.654;23.360;2023-11-21T03:51:34;18.50;;;8.33;;
6388;SDS011;3227;42.654;23.360;2023-11-21T03:54:00;18.87;;;8.90;;
6388;SDS011;3227;42.654;23.360;2023-11-21T03:56:27;17.60;;;8.13;;
6388;SDS011;3227;42.654;23.360;2023-11-21T03:58:55;19.53;;;8.43;;
6388;SDS011;3227;42.654;23.360;2023-11-21T04:01:21;16.60;;;8.83;;
6388;SDS011;3227;42.654;23.360;2023-11-21T04:03:48;14.97;;;7.97;;
6388;SDS011;3227;42.654;23.360;2023-11-21T04:06:17;14.80;;;7.47;;
6388;SDS011;3227;42.654;23.360;2023-11-21T04:08:44;16.13;;;7.57;;
6388;SDS011;3227;42.654;23.360;2023-11-21T04:11:11;12.10;;;6.83;;
6388;SDS011;3227;42.654;23.360;2023-11-21T04:13:38;11.87;;;6.07;;
6388;SDS011;3227;42.654;23.360;2023-11-21T04:16:05;14.43;;;7.10;;
6388;SDS011;3227;42.654;23.360;2023-11-21T04:18:33;12.67;;;6.53;;
6388;SDS011;3227;42.654;23.360;2023-11-21T04:20:59;12.53;;;6.57;;
6388;SDS011;3227;42.654;23.360;2023-11-21T04:23:28;14.20;;;6.93;;
6388;SDS011;3227;42.654;23.360;2023-11-21T04:25:56;14.83;;;7.60;;
6388;SDS011;3227;42.654;23.360;2023-11-21T04:28:23;14.97;;;7.23;;
6388;SDS011;3227;42.654;23.360;2023-11-21T04:30:50;13.17;;;7.00;;
6388;SDS011;3227;42.654;23.360;2023-11-21T04:33:17;15.40;;;7.47;;
6388;SDS011;3227;42.654;23.360;2023-11-21T04:35:44;12.93;;;7.30;;
6388;SDS011;3227;42.654;23.360;2023-11-21T04:38:11;14.80;;;7.33;;
6388;SDS011;3227;42.654;23.360;2023-11-21T04:40:39;11.57;;;6.83;;
6388;SDS011;3227;42.654;23.360;2023-11-21T04:43:06;14.00;;;6.73;;
6388;SDS011;3227;42.654;23.360;2023-11-21T04:45:33;15.60;;;6.77;;
6388;SDS011;3227;42.654;23.360;2023-11-21T04:47:59;14.83;;;7.07;;
6388;SDS011;3227;42.654;23.360;2023-11-21T04:50:26;13.20;;;6.23;;
6388;SDS011;3227;42.654;23.360;2023-11-21T04:52:53;15.57;;;7.13;;
6388;SDS011;3227;42.654;23.360;2023-11-21T04:55:20;11.70;;;6.63;;
6388;SDS011;3227;42.654;23.360;2023-11-21T04:57:48;13.33;;;6.80;;
6388;SDS011;3227;42.654;23.360;2023-11-21T05:00:15;18.57;;;6.50;;
6388;SDS011;3227;42.654;23.360;2023-11-21T05:02:42;16.37;;;7.83;;
6388;SDS011;3227;42.654;23.360;2023-11-21T05:05:09;11.53;;;6.17;;
6388;SDS011;3227;42.654;23.360;2023-11-21T05:07:36;14.07;;;7.30;;
6388;SDS011;3227;42.654;23.360;2023-11-21T05:10:03;13.27;;;6.63;;
6388;SDS011;3227;42.654;23.360;2023-11-21T05:12:33;10.50;;;6.10;;
6388;SDS011;3227;42.654;23.360;2023-11-21T05:15:03;15.30;;;6.13;;
6388;SDS011;3227;42.654;23.360;2023-11-21T05:17:35;11.33;;;6.17;;
6388;SDS011;3227;42.654;23.360;2023-11-21T05:20:02;11.47;;;5.97;;
6388;SDS011;3227;42.654;23.360;2023-11-21T05:22:33;14.50;;;6.67;;
6388;SDS011;3227;42.654;23.360;2023-11-21T05:25:00;14.53;;;6.43;;
6388;SDS011;3227;42.654;23.360;2023-11-21T05:27:28;10.83;;;6.10;;
6388;SDS011;3227;42.654;23.360;2023-11-21T05:29:55;16.20;;;6.23;;
6388;SDS011;3227;42.654;23.360;2023-11-21T05:32:24;10.50;;;5.97;;
6388;SDS011;3227;42.654;23.360;2023-11-21T05:34:52;13.30;;;5.93;;
6388;SDS011;3227;42.654;23.360;2023-11-21T05:37:18;11.03;;;6.27;;
6388;SDS011;3227;42.654;23.360;2023-11-21T05:39:45;16.30;;;7.17;;
6388;SDS011;3227;42.654;23.360;2023-11-21T05:42:12;17.90;;;9.03;;
6388;SDS011;3227;42.654;23.360;2023-11-21T05:44:41;25.77;;;12.33;;
6388;SDS011;3227;42.654;23.360;2023-11-21T05:47:08;23.67;;;11.47;;
6388;SDS011;3227;42.654;23.360;2023-11-21T05:49:36;25.67;;;10.67;;
6388;SDS011;3227;42.654;23.360;2023-11-21T05:52:03;23.50;;;10.40;;
6388;SDS011;3227;42.654;23.360;2023-11-21T05:54:31;17.13;;;9.10;;
6388;SDS011;3227;42.654;23.360;2023-11-21T05:56:59;13.87;;;8.10;;
6388;SDS011;3227;42.654;23.360;2023-11-21T05:59:26;16.33;;;7.90;;
6388;SDS011;3227;42.654;23.360;2023-11-21T06:01:52;17.00;;;8.67;;
6388;SDS011;3227;42.654;23.360;2023-11-21T06:04:20;19.20;;;8.60;;
6388;SDS011;3227;42.654;23.360;2023-11-21T06:06:51;23.43;;;9.67;;
6388;SDS011;3227;42.654;23.360;2023-11-21T06:09:19;19.60;;;8.77;;
6388;SDS011;3227;42.654;23.360;2023-11-21T06:11:46;15.57;;;9.13;;
6388;SDS011;3227;42.654;23.360;2023-11-21T06:14:13;20.20;;;9.70;;
6388;SDS011;3227;42.654;23.360;2023-11-21T06:16:53;16.60;;;9.43;;
6388;SDS011;3227;42.654;23.360;2023-11-21T06:19:21;21.53;;;9.30;;
6388;SDS011;3227;42.654;23.360;2023-11-21T06:21:48;14.27;;;8.77;;
6388;SDS011;3227;42.654;23.360;2023-11-21T06:24:17;18.30;;;8.53;;
6388;SDS011;3227;42.654;23.360;2023-11-21T06:26:45;20.73;;;8.80;;
6388;SDS011;3227;42.654;23.360;2023-11-21T06:29:13;17.60;;;8.57;;
6388;SDS011;3227;42.654;23.360;2023-11-21T06:31:41;17.25;;;10.40;;
6388;SDS011;3227;42.654;23.360;2023-11-21T06:34:09;16.60;;;9.80;;
6388;SDS011;3227;42.654;23.360;2023-11-21T06:36:35;17.70;;;10.13;;
6388;SDS011;3227;42.654;23.360;2023-11-21T06:39:02;20.07;;;9.70;;
6388;SDS011;3227;42.654;23.360;2023-11-21T06:41:33;18.63;;;11.70;;
6388;SDS011;3227;42.654;23.360;2023-11-21T06:44:00;19.40;;;11.13;;
6388;SDS011;3227;42.654;23.360;2023-11-21T06:46:28;21.63;;;12.10;;
6388;SDS011;3227;42.654;23.360;2023-11-21T06:48:55;19.47;;;11.30;;
6388;SDS011;3227;42.654;23.360;2023-11-21T06:51:22;24.63;;;10.80;;
6388;SDS011;3227;42.654;23.360;2023-11-21T06:53:48;18.57;;;10.60;;
6388;SDS011;3227;42.654;23.360;2023-11-21T06:56:17;18.93;;;10.80;;
6388;SDS011;3227;42.654;23.360;2023-11-21T06:58:46;21.10;;;10.40;;
6388;SDS011;3227;42.654;23.360;2023-11-21T07:01:16;17.87;;;10.07;;
6388;SDS011;3227;42.654;23.360;2023-11-21T07:03:43;19.50;;;10.73;;
6388;SDS011;3227;42.654;23.360;2023-11-21T07:06:10;21.40;;;11.20;;
6388;SDS011;3227;42.654;23.360;2023-11-21T07:08:37;18.37;;;10.40;;
6388;SDS011;3227;42.654;23.360;2023-11-21T07:11:04;19.57;;;12.30;;
6388;SDS011;3227;42.654;23.360;2023-11-21T07:13:31;19.47;;;11.13;;
6388;SDS011;3227;42.654;23.360;2023-11-21T07:15:59;18.20;;;10.27;;
6388;SDS011;3227;42.654;23.360;2023-11-21T07:18:26;18.00;;;9.30;;
6388;SDS011;3227;42.654;23.360;2023-11-21T07:20:53;15.63;;;8.13;;
6388;SDS011;3227;42.654;23.360;2023-11-21T07:23:19;14.73;;;7.30;;
6388;SDS011;3227;42.654;23.360;2023-11-21T07:25:48;17.03;;;8.00;;
6388;SDS011;3227;42.654;23.360;2023-11-21T07:28:14;19.17;;;8.23;;
6388;SDS011;3227;42.654;23.360;2023-11-21T07:30:41;13.10;;;7.00;;
6388;SDS011;3227;42.654;23.360;2023-11-21T07:33:09;14.13;;;6.73;;
6388;SDS011;3227;42.654;23.360;2023-11-21T07:35:36;12.07;;;6.87;;
6388;SDS011;3227;42.654;23.360;2023-11-21T07:38:03;12.10;;;7.10;;
6388;SDS011;3227;42.654;23.360;2023-11-21T07:40:30;17.80;;;7.87;;
6388;SDS011;3227;42.654;23.360;2023-11-21T07:42:56;16.17;;;8.20;;
6388;SDS011;3227;42.654;23.360;2023-11-21T07:45:25;14.63;;;8.03;;
6388;SDS011;3227;42.654;23.360;2023-11-21T07:47:52;15.93;;;8.53;;
6388;SDS011;3227;42.654;23.360;2023-11-21T07:50:21;15.83;;;8.13;;
6388;SDS011;3227;42.654;23.360;2023-11-21T07:52:48;13.80;;;8.10;;
6388;SDS011;3227;42.654;23.360;2023-11-21T07:55:15;18.97;;;9.27;;
6388;SDS011;3227;42.654;23.360;2023-11-21T07:57:42;19.33;;;9.50;;
6388;SDS011;3227;42.654;23.360;2023-11-21T08:00:09;16.40;;;8.60;;
6388;SDS011;3227;42.654;23.360;2023-11-21T08:02:37;14.70;;;8.37;;
6388;SDS011;3227;42.654;23.360;2023-11-21T08:05:04;18.30;;;8.03;;
6388;SDS011;3227;42.654;23.360;2023-11-21T08:07:33;13.57;;;8.83;;
6388;SDS011;3227;42.654;23.360;2023-11-21T08:10:01;13.50;;;8.50;;
6388;SDS011;3227;42.654;23.360;2023-11-21T08:12:28;15.43;;;8.53;;
6388;SDS011;3227;42.654;23.360;2023-11-21T08:14:54;12.50;;;7.87;;
6388;SDS011;3227;42.654;23.360;2023-11-21T08:17:21;15.80;;;9.60;;
6388;SDS011;3227;42.654;23.360;2023-11-21T08:19:48;15.23;;;8.53;;
6388;SDS011;3227;42.654;23.360;2023-11-21T08:22:16;15.23;;;8.83;;
6388;SDS011;3227;42.654;23.360;2023-11-21T08:24:44;16.03;;;8.60;;
6388;SDS011;3227;42.654;23.360;2023-11-21T08:27:11;14.27;;;8.83;;
6388;SDS011;3227;42.654;23.360;2023-11-21T08:29:40;16.17;;;8.97;;
6388;SDS011;3227;42.654;23.360;2023-11-21T08:32:07;19.57;;;9.00;;
6388;SDS011;3227;42.654;23.360;2023-11-21T08:34:34;14.37;;;7.67;;
6388;SDS011;3227;42.654;23.360;2023-11-21T08:37:01;13.47;;;7.93;;
6388;SDS011;3227;42.654;23.360;2023-11-21T08:39:28;17.30;;;8.63;;
6388;SDS011;3227;42.654;23.360;2023-11-21T08:41:56;14.37;;;7.77;;
6388;SDS011;3227;42.654;23.360;2023-11-21T08:44:23;14.87;;;8.13;;
6388;SDS011;3227;42.654;23.360;2023-11-21T08:46:50;15.00;;;8.17;;
6388;SDS011;3227;42.654;23.360;2023-11-21T08:49:17;17.00;;;9.17;;
6388;SDS011;3227;42.654;23.360;2023-11-21T08:51:44;15.50;;;8.07;;
6388;SDS011;3227;42.654;23.360;2023-11-21T08:54:11;17.13;;;8.63;;
6388;SDS011;3227;42.654;23.360;2023-11-21T08:56:38;14.77;;;8.47;;
6388;SDS011;3227;42.654;23.360;2023-11-21T08:59:07;14.77;;;8.23;;
6388;SDS011;3227;42.654;23.360;2023-11-21T09:01:34;16.97;;;8.57;;
6388;SDS011;3227;42.654;23.360;2023-11-21T09:04:01;17.03;;;8.30;;
6388;SDS011;3227;42.654;23.360;2023-11-21T09:06:28;15.57;;;8.80;;
6388;SDS011;3227;42.654;23.360;2023-11-21T09:08:54;15.00;;;7.90;;
6388;SDS011;3227;42.654;23.360;2023-11-21T09:11:21;17.83;;;8.93;;
6388;SDS011;3227;42.654;23.360;2023-11-21T09:13:48;16.40;;;8.97;;
6388;SDS011;3227;42.654;23.360;2023-11-21T09:16:17;16.37;;;9.60;;
6388;SDS011;3227;42.654;23.360;2023-11-21T09:18:44;20.77;;;11.43;;
6388;SDS011;3227;42.654;23.360;2023-11-21T09:21:11;22.98;;;12.90;;
6388;SDS011;3227;42.654;23.360;2023-11-21T09:23:38;20.67;;;12.88;;
6388;SDS011;3227;42.654;23.360;2023-11-21T09:26:05;21.73;;;13.13;;
6388;SDS011;3227;42.654;23.360;2023-11-21T09:28:31;24.13;;;12.17;;
6388;SDS011;3227;42.654;23.360;2023-11-21T09:30:58;20.90;;;11.50;;
6388;SDS011;3227;42.654;23.360;2023-11-21T09:33:28;21.27;;;12.18;;
6388;SDS011;3227;42.654;23.360;2023-11-21T09:35:55;18.83;;;11.63;;
6388;SDS011;3227;42.654;23.360;2023-11-21T09:38:22;21.30;;;11.53;;
6388;SDS011;3227;42.654;23.360;2023-11-21T09:40:49;18.67;;;12.00;;
6388;SDS011;3227;42.654;23.360;2023-11-21T09:43:18;20.80;;;11.87;;
6388;SDS011;3227;42.654;23.360;2023-11-21T09:45:45;18.10;;;11.47;;
6388;SDS011;3227;42.654;23.360;2023-11-21T09:48:13;23.77;;;12.23;;
6388;SDS011;3227;42.654;23.360;2023-11-21T09:50:43;18.57;;;11.53;;
6388;SDS011;3227;42.654;23.360;2023-11-21T09:53:13;22.53;;;11.63;;
6388;SDS011;3227;42.654;23.360;2023-11-21T09:55:44;22.50;;;11.33;;
6388;SDS011;3227;42.654;23.360;2023-11-21T09:58:12;20.30;;;11.60;;
6388;SDS011;3227;42.654;23.360;2023-11-21T10:00:40;20.70;;;11.13;;
6388;SDS011;3227;42.654;23.360;2023-11-21T10:03:08;19.73;;;11.30;;
6388;SDS011;3227;42.654;23.360;2023-11-21T10:05:35;19.53;;;11.83;;
6388;SDS011;3227;42.654;23.360;2023-11-21T10:08:06;20.47;;;12.20;;
6388;SDS011;3227;42.654;23.360;2023-11-21T10:10:35;21.50;;;13.07;;
6388;SDS011;3227;42.654;23.360;2023-11-21T10:13:02;24.77;;;13.48;;
6388;SDS011;3227;42.654;23.360;2023-11-21T10:15:32;22.37;;;12.30;;
6388;SDS011;3227;42.654;23.360;2023-11-21T10:18:02;24.02;;;14.25;;
6388;SDS011;3227;42.654;23.360;2023-11-21T10:20:29;18.90;;;11.90;;
6388;SDS011;3227;42.654;23.360;2023-11-21T10:22:58;19.48;;;12.70;;
6388;SDS011;3227;42.654;23.360;2023-11-21T10:25:28;20.98;;;12.60;;
6388;SDS011;3227;42.654;23.360;2023-11-21T10:27:57;20.33;;;12.43;;
6388;SDS011;3227;42.654;23.360;2023-11-21T10:30:27;18.67;;;12.65;;
6388;SDS011;3227;42.654;23.360;2023-11-21T10:32:58;17.23;;;10.55;;
6388;SDS011;3227;42.654;23.360;2023-11-21T10:35:25;13.57;;;8.03;;
6388;SDS011;3227;42.654;23.360;2023-11-21T10:38:12;17.55;;;9.90;;
6388;SDS011;3227;42.654;23.360;2023-11-21T10:40:40;21.57;;;10.97;;
6388;SDS011;3227;42.654;23.360;2023-11-21T10:43:11;18.37;;;11.37;;
6388;SDS011;3227;42.654;23.360;2023-11-21T10:45:40;21.05;;;11.55;;
6388;SDS011;3227;42.654;23.360;2023-11-21T10:48:07;23.80;;;10.90;;
6388;SDS011;3227;42.654;23.360;2023-11-21T10:50:36;19.13;;;11.90;;
6388;SDS011;3227;42.654;23.360;2023-11-21T10:53:03;18.30;;;10.23;;
6388;SDS011;3227;42.654;23.360;2023-11-21T10:55:31;15.90;;;9.50;;
6388;SDS011;3227;42.654;23.360;2023-11-21T10:58:00;17.70;;;10.57;;
6388;SDS011;3227;42.654;23.360;2023-11-21T11:00:29;17.45;;;9.40;;
6388;SDS011;3227;42.654;23.360;2023-11-21T11:02:57;16.50;;;9.03;;
6388;SDS011;3227;42.654;23.360;2023-11-21T11:05:24;15.73;;;8.45;;
6388;SDS011;3227;42.654;23.360;2023-11-21T11:07:55;17.53;;;9.63;;
6388;SDS011;3227;42.654;23.360;2023-11-21T11:10:26;21.73;;;9.57;;
6388;SDS011;3227;42.654;23.360;2023-11-21T11:12:54;15.85;;;10.20;;
6388;SDS011;3227;42.654;23.360;2023-11-21T11:15:24;16.90;;;9.13;;
6388;SDS011;3227;42.654;23.360;2023-11-21T11:17:51;16.58;;;9.25;;
6388;SDS011;3227;42.654;23.360;2023-11-21T11:20:22;15.00;;;9.60;;
6388;SDS011;3227;42.654;23.360;2023-11-21T11:22:53;15.27;;;9.13;;
6388;SDS011;3227;42.654;23.360;2023-11-21T11:25:34;14.87;;;8.60;;
6388;SDS011;3227;42.654;23.360;2023-11-21T11:28:14;15.10;;;7.93;;
6388;SDS011;3227;42.654;23.360;2023-11-21T11:30:50;18.67;;;8.77;;
6388;SDS011;3227;42.654;23.360;2023-11-21T11:33:30;15.55;;;8.40;;
6388;SDS011;3227;42.654;23.360;2023-11-21T11:36:05;19.58;;;10.60;;
6388;SDS011;3227;42.654;23.360;2023-11-21T11:38:36;14.77;;;9.13;;
6388;SDS011;3227;42.654;23.360;2023-11-21T11:41:04;16.98;;;9.07;;
6388;SDS011;3227;42.654;23.360;2023-11-21T11:43:32;15.82;;;9.80;;
6388;SDS011;3227;42.654;23.360;2023-11-21T11:46:10;16.25;;;9.75;;
6388;SDS011;3227;42.654;23.360;2023-11-21T11:48:39;18.42;;;10.68;;
6388;SDS011;3227;42.654;23.360;2023-11-21T11:51:07;18.75;;;9.77;;
6388;SDS011;3227;42.654;23.360;2023-11-21T11:53:39;17.40;;;9.85;;
6388;SDS011;3227;42.654;23.360;2023-11-21T11:56:23;15.57;;;9.40;;
6388;SDS011;3227;42.654;23.360;2023-11-21T11:58:56;18.70;;;9.93;;
6388;SDS011;3227;42.654;23.360;2023-11-21T12:01:26;15.00;;;8.97;;
6388;SDS011;3227;42.654;23.360;2023-11-21T12:07:00;16.57;;;9.40;;
6388;SDS011;3227;42.654;23.360;2023-11-21T12:09:28;16.77;;;8.80;;
6388;SDS011;3227;42.654;23.360;2023-11-21T12:11:56;21.07;;;10.00;;
6388;SDS011;3227;42.654;23.360;2023-11-21T12:14:23;17.77;;;10.23;;
6388;SDS011;3227;42.654;23.360;2023-11-21T12:16:52;18.70;;;11.13;;
6388;SDS011;3227;42.654;23.360;2023-11-21T12:19:19;20.75;;;12.20;;
6388;SDS011;3227;42.654;23.360;2023-11-21T12:21:48;21.40;;;12.43;;
6388;SDS011;3227;42.654;23.360;2023-11-21T12:24:15;24.30;;;11.63;;
6388;SDS011;3227;42.654;23.360;2023-11-21T12:26:42;20.93;;;12.13;;
6388;SDS011;3227;42.654;23.360;2023-11-21T12:29:10;20.80;;;13.10;;
6388;SDS011;3227;42.654;23.360;2023-11-21T12:31:37;19.97;;;12.30;;
6388;SDS011;3227;42.654;23.360;2023-11-21T12:34:05;22.87;;;13.30;;
6388;SDS011;3227;42.654;23.360;2023-11-21T12:36:34;24.93;;;14.03;;
6388;SDS011;3227;42.654;23.360;2023-11-21T12:39:01;23.23;;;13.97;;
6388;SDS011;3227;42.654;23.360;2023-11-21T12:41:29;27.05;;;16.17;;
6388;SDS011;3227;42.654;23.360;2023-11-21T12:43:56;25.07;;;16.47;;
6388;SDS011;3227;42.654;23.360;2023-11-21T12:46:23;32.17;;;15.80;;
6388;SDS011;3227;42.654;23.360;2023-11-21T12:48:54;26.60;;;15.73;;
6388;SDS011;3227;42.654;23.360;2023-11-21T12:51:23;25.27;;;14.83;;
6388;SDS011;3227;42.654;23.360;2023-11-21T12:53:50;27.42;;;17.80;;
6388;SDS011;3227;42.654;23.360;2023-11-21T12:56:17;23.53;;;15.17;;
6388;SDS011;3227;42.654;23.360;2023-11-21T12:58:48;27.20;;;15.97;;
6388;SDS011;3227;42.654;23.360;2023-11-21T13:01:15;26.40;;;15.27;;
6388;SDS011;3227;42.654;23.360;2023-11-21T13:03:45;31.13;;;14.87;;
6388;SDS011;3227;42.654;23.360;2023-11-21T13:06:14;27.53;;;15.53;;
6388;SDS011;3227;42.654;23.360;2023-11-21T13:08:43;28.97;;;14.93;;
6388;SDS011;3227;42.654;23.360;2023-11-21T13:11:10;28.83;;;14.87;;
6388;SDS011;3227;42.654;23.360;2023-11-21T13:13:39;28.00;;;15.07;;
6388;SDS011;3227;42.654;23.360;2023-11-21T13:16:07;27.85;;;17.63;;
6388;SDS011;3227;42.654;23.360;2023-11-21T13:18:35;26.37;;;16.03;;
6388;SDS011;3227;42.654;23.360;2023-11-21T13:21:02;31.30;;;19.53;;
6388;SDS011;3227;42.654;23.360;2023-11-21T13:23:35;28.50;;;16.20;;
6388;SDS011;3227;42.654;23.360;2023-11-21T13:26:04;29.23;;;16.20;;
6388;SDS011;3227;42.654;23.360;2023-11-21T13:28:31;28.70;;;18.30;;
6388;SDS011;3227;42.654;23.360;2023-11-21T13:30:59;29.17;;;16.10;;
6388;SDS011;3227;42.654;23.360;2023-11-21T13:33:34;23.20;;;14.60;;
6388;SDS011;3227;42.654;23.360;2023-11-21T13:36:03;26.50;;;16.53;;
6388;SDS011;3227;42.654;23.360;2023-11-21T13:38:32;29.35;;;17.63;;
6388;SDS011;3227;42.654;23.360;2023-11-21T13:41:00;27.43;;;16.77;;
6388;SDS011;3227;42.654;23.360;2023-11-21T13:43:33;28.27;;;15.83;;
6388;SDS011;3227;42.654;23.360;2023-11-21T13:46:02;28.33;;;17.73;;
6388;SDS011;3227;42.654;23.360;2023-11-21T13:48:37;29.00;;;18.55;;
6388;SDS011;3227;42.654;23.360;2023-11-21T13:51:07;28.88;;;17.65;;
6388;SDS011;3227;42.654;23.360;2023-11-21T13:53:42;29.53;;;16.60;;
6388;SDS011;3227;42.654;23.360;2023-11-21T13:56:09;28.23;;;17.43;;
6388;SDS011;3227;42.654;23.360;2023-11-21T13:58:38;31.02;;;18.33;;
6388;SDS011;3227;42.654;23.360;2023-11-21T14:01:11;30.05;;;17.63;;
6388;SDS011;3227;42.654;23.360;2023-11-21T14:03:57;26.93;;;15.60;;
6388;SDS011;3227;42.654;23.360;2023-11-21T14:06:33;28.87;;;16.77;;
6388;SDS011;3227;42.654;23.360;2023-11-21T14:09:10;27.97;;;16.17;;
6388;SDS011;3227;42.654;23.360;2023-11-21T14:11:39;31.23;;;16.70;;
6388;SDS011;3227;42.654;23.360;2023-11-21T14:14:07;35.13;;;18.10;;
6388;SDS011;3227;42.654;23.360;2023-11-21T14:16:34;30.35;;;20.13;;
6388;SDS011;3227;42.654;23.360;2023-11-21T14:19:02;33.33;;;17.67;;
6388;SDS011;3227;42.654;23.360;2023-11-21T14:21:34;27.17;;;16.17;;
6388;SDS011;3227;42.654;23.360;2023-11-21T14:24:01;28.13;;;17.13;;
6388;SDS011;3227;42.654;23.360;2023-11-21T14:26:28;32.80;;;18.13;;
6388;SDS011;3227;42.654;23.360;2023-11-21T14:28:55;34.45;;;18.35;;
6388;SDS011;3227;42.654;23.360;2023-11-21T14:31:24;32.22;;;18.33;;
6388;SDS011;3227;42.654;23.360;2023-11-21T14:33:51;30.97;;;18.87;;
6388;SDS011;3227;42.654;23.360;2023-11-21T14:36:23;29.40;;;16.37;;
6388;SDS011;3227;42.654;23.360;2023-11-21T14:38:51;26.53;;;15.53;;
6388;SDS011;3227;42.654;23.360;2023-11-21T14:41:17;24.93;;;15.33;;
6388;SDS011;3227;42.654;23.360;2023-11-21T14:43:44;28.67;;;16.73;;
6388;SDS011;3227;42.654;23.360;2023-11-21T14:46:14;30.92;;;17.95;;
6388;SDS011;3227;42.654;23.360;2023-11-21T14:48:45;26.10;;;16.17;;
6388;SDS011;3227;42.654;23.360;2023-11-21T14:51:23;26.90;;;15.17;;